sensor_id;sensor_type;location;lat;lon;timestamp;P1;durP1;ratioP1;P2;durP2;ratioP2
43986;SDS011;29650;47.378;8.300;2022-07-29T00:00:14;1.92;;;1.00;;
43986;SDS011;29650;47.378;8.300;2022-07-29T00:02:42;1.05;;;1.00;;
43986;SDS011;29650;47.378;8.300;2022-07-29T00:05:09;5.07;;;1.55;;
43986;SDS011;29650;47.378;8.300;2022-07-29T00:07:38;1.40;;;0.98;;
43986;SDS011;29650;47.378;8.300;2022-07-29T00:10:05;1.13;;;1.00;;
43986;SDS011;29650;47.378;8.300;2022-07-29T00:12:32;1.27;;;1.05;;
43986;SDS011;29650;47.378;8.300;2022-07-29T00:14:59;1.40;;;0.93;;
43986;SDS011;29650;47.378;8.300;2022-07-29T00:17:28;1.08;;;0.90;;
43986;SDS011;29650;47.378;8.300;2022-07-29T00:19:55;4.55;;;1.30;;
43986;SDS011;29650;47.378;8.300;2022-07-29T00:22:22;1.08;;;0.95;;
43986;SDS011;29650;47.378;8.300;2022-07-29T00:24:49;2.35;;;0.82;;
43986;SDS011;29650;47.378;8.300;2022-07-29T00:27:16;1.17;;;1.00;;
43986;SDS011;29650;47.378;8.300;2022-07-29T00:29:43;3.42;;;1.08;;
43986;SDS011;29650;47.378;8.300;2022-07-29T00:32:10;1.33;;;1.10;;
43986;SDS011;29650;47.378;8.300;2022-07-29T00:34:39;1.27;;;1.10;;
43986;SDS011;29650;47.378;8.300;2022-07-29T00:37:23;3.47;;;1.50;;
43986;SDS011;29650;47.378;8.300;2022-07-29T00:39:51;1.83;;;0.70;;
43986;SDS011;29650;47.378;8.300;2022-07-29T00:42:18;2.30;;;0.88;;
43986;SDS011;29650;47.378;8.300;2022-07-29T00:44:45;2.88;;;1.30;;
43986;SDS011;29650;47.378;8.300;2022-07-29T00:47:12;5.90;;;1.40;;
43986;SDS011;29650;47.378;8.300;2022-07-29T00:49:40;1.63;;;1.30;;
43986;SDS011;29650;47.378;8.300;2022-07-29T00:52:09;1.52;;;1.00;;
43986;SDS011;29650;47.378;8.300;2022-07-29T00:54:38;0.85;;;0.75;;
43986;SDS011;29650;47.378;8.300;2022-07-29T00:57:05;2.43;;;0.87;;
43986;SDS011;29650;47.378;8.300;2022-07-29T00:59:33;1.75;;;1.00;;
43986;SDS011;29650;47.378;8.300;2022-07-29T01:02:01;1.77;;;1.17;;
43986;SDS011;29650;47.378;8.300;2022-07-29T01:04:28;1.88;;;1.42;;
43986;SDS011;29650;47.378;8.300;2022-07-29T01:06:57;2.83;;;1.27;;
43986;SDS011;29650;47.378;8.300;2022-07-29T01:09:25;1.42;;;1.33;;
43986;SDS011;29650;47.378;8.300;2022-07-29T01:11:53;1.63;;;1.20;;
43986;SDS011;29650;47.378;8.300;2022-07-29T01:14:21;2.53;;;1.25;;
43986;SDS011;29650;47.378;8.300;2022-07-29T01:16:50;1.23;;;1.13;;
43986;SDS011;29650;47.378;8.300;2022-07-29T01:19:33;1.38;;;1.27;;
43986;SDS011;29650;47.378;8.300;2022-07-29T01:22:19;1.35;;;1.10;;
43986;SDS011;29650;47.378;8.300;2022-07-29T01:25:05;1.85;;;1.35;;
43986;SDS011;29650;47.378;8.300;2022-07-29T01:27:44;1.08;;;0.90;;
43986;SDS011;29650;47.378;8.300;2022-07-29T01:30:25;1.80;;;1.42;;
43986;SDS011;29650;47.378;8.300;2022-07-29T01:32:54;2.58;;;0.88;;
43986;SDS011;29650;47.378;8.300;2022-07-29T01:35:28;1.10;;;0.85;;
43986;SDS011;29650;47.378;8.300;2022-07-29T01:37:59;2.25;;;1.27;;
43986;SDS011;29650;47.378;8.300;2022-07-29T01:40:33;1.55;;;1.20;;
43986;SDS011;29650;47.378;8.300;2022-07-29T01:43:06;1.20;;;0.80;;
43986;SDS011;29650;47.378;8.300;2022-07-29T01:45:40;7.25;;;1.50;;
43986;SDS011;29650;47.378;8.300;2022-07-29T01:48:10;4.43;;;1.50;;
43986;SDS011;29650;47.378;8.300;2022-07-29T01:50:45;1.30;;;1.20;;
43986;SDS011;29650;47.378;8.300;2022-07-29T01:53:15;1.75;;;1.10;;
43986;SDS011;29650;47.378;8.300;2022-07-29T01:55:48;1.67;;;0.82;;
43986;SDS011;29650;47.378;8.300;2022-07-29T01:58:18;1.85;;;1.20;;
43986;SDS011;29650;47.378;8.300;2022-07-29T02:00:48;5.80;;;1.48;;
43986;SDS011;29650;47.378;8.300;2022-07-29T02:03:16;2.67;;;1.80;;
43986;SDS011;29650;47.378;8.300;2022-07-29T02:05:45;2.38;;;1.38;;
43986;SDS011;29650;47.378;8.300;2022-07-29T02:08:14;1.83;;;1.20;;
43986;SDS011;29650;47.378;8.300;2022-07-29T02:10:43;1.33;;;1.20;;
43986;SDS011;29650;47.378;8.300;2022-07-29T02:13:11;2.15;;;1.30;;
43986;SDS011;29650;47.378;8.300;2022-07-29T02:15:38;1.23;;;1.08;;
43986;SDS011;29650;47.378;8.300;2022-07-29T02:18:11;2.58;;;1.60;;
43986;SDS011;29650;47.378;8.300;2022-07-29T02:20:42;1.67;;;1.38;;
43986;SDS011;29650;47.378;8.300;2022-07-29T02:23:13;1.83;;;1.42;;
43986;SDS011;29650;47.378;8.300;2022-07-29T02:25:43;2.53;;;1.52;;
43986;SDS011;29650;47.378;8.300;2022-07-29T02:28:11;2.83;;;1.80;;
43986;SDS011;29650;47.378;8.300;2022-07-29T02:30:40;2.15;;;1.45;;
43986;SDS011;29650;47.378;8.300;2022-07-29T02:33:10;2.25;;;1.52;;
43986;SDS011;29650;47.378;8.300;2022-07-29T02:35:40;2.33;;;1.30;;
43986;SDS011;29650;47.378;8.300;2022-07-29T02:38:09;2.80;;;2.10;;
43986;SDS011;29650;47.378;8.300;2022-07-29T02:40:58;1.80;;;1.50;;
43986;SDS011;29650;47.378;8.300;2022-07-29T02:43:26;6.25;;;2.10;;
43986;SDS011;29650;47.378;8.300;2022-07-29T02:45:56;2.13;;;1.40;;
43986;SDS011;29650;47.378;8.300;2022-07-29T02:48:31;6.50;;;1.52;;
43986;SDS011;29650;47.378;8.300;2022-07-29T02:51:05;1.40;;;1.10;;
43986;SDS011;29650;47.378;8.300;2022-07-29T02:53:34;1.83;;;1.63;;
43986;SDS011;29650;47.378;8.300;2022-07-29T02:56:06;2.15;;;1.70;;
43986;SDS011;29650;47.378;8.300;2022-07-29T02:58:38;2.30;;;1.58;;
43986;SDS011;29650;47.378;8.300;2022-07-29T03:01:08;2.22;;;1.30;;
43986;SDS011;29650;47.378;8.300;2022-07-29T03:03:40;1.85;;;1.40;;
43986;SDS011;29650;47.378;8.300;2022-07-29T03:06:10;2.00;;;1.55;;
43986;SDS011;29650;47.378;8.300;2022-07-29T03:08:39;2.15;;;1.40;;
43986;SDS011;29650;47.378;8.300;2022-07-29T03:11:07;1.92;;;1.48;;
43986;SDS011;29650;47.378;8.300;2022-07-29T03:13:36;2.42;;;1.48;;
43986;SDS011;29650;47.378;8.300;2022-07-29T03:16:03;7.25;;;1.70;;
43986;SDS011;29650;47.378;8.300;2022-07-29T03:18:31;1.98;;;1.33;;
43986;SDS011;29650;47.378;8.300;2022-07-29T03:21:00;2.70;;;1.77;;
43986;SDS011;29650;47.378;8.300;2022-07-29T03:23:27;2.50;;;1.67;;
43986;SDS011;29650;47.378;8.300;2022-07-29T03:25:54;4.95;;;1.70;;
43986;SDS011;29650;47.378;8.300;2022-07-29T03:28:21;3.25;;;1.83;;
43986;SDS011;29650;47.378;8.300;2022-07-29T03:30:48;1.88;;;1.65;;
43986;SDS011;29650;47.378;8.300;2022-07-29T03:33:15;1.75;;;1.17;;
43986;SDS011;29650;47.378;8.300;2022-07-29T03:35:42;3.55;;;1.65;;
43986;SDS011;29650;47.378;8.300;2022-07-29T03:38:11;1.95;;;1.58;;
43986;SDS011;29650;47.378;8.300;2022-07-29T03:40:38;1.85;;;1.35;;
43986;SDS011;29650;47.378;8.300;2022-07-29T03:43:10;1.83;;;1.50;;
43986;SDS011;29650;47.378;8.300;2022-07-29T03:45:39;2.50;;;1.52;;
43986;SDS011;29650;47.378;8.300;2022-07-29T03:48:10;1.98;;;1.67;;
43986;SDS011;29650;47.378;8.300;2022-07-29T03:50:39;1.85;;;1.65;;
43986;SDS011;29650;47.378;8.300;2022-07-29T03:53:06;2.25;;;1.52;;
43986;SDS011;29650;47.378;8.300;2022-07-29T03:55:37;2.20;;;1.90;;
43986;SDS011;29650;47.378;8.300;2022-07-29T03:58:07;3.78;;;2.08;;
43986;SDS011;29650;47.378;8.300;2022-07-29T04:00:37;4.40;;;1.70;;
43986;SDS011;29650;47.378;8.300;2022-07-29T04:03:04;2.72;;;1.63;;
43986;SDS011;29650;47.378;8.300;2022-07-29T04:05:32;2.47;;;1.90;;
43986;SDS011;29650;47.378;8.300;2022-07-29T04:07:59;2.15;;;1.63;;
43986;SDS011;29650;47.378;8.300;2022-07-29T04:10:26;2.17;;;1.67;;
43986;SDS011;29650;47.378;8.300;2022-07-29T04:12:54;3.58;;;1.75;;
43986;SDS011;29650;47.378;8.300;2022-07-29T04:15:21;2.90;;;2.00;;
43986;SDS011;29650;47.378;8.300;2022-07-29T04:17:48;3.60;;;2.00;;
43986;SDS011;29650;47.378;8.300;2022-07-29T04:20:15;2.63;;;2.00;;
43986;SDS011;29650;47.378;8.300;2022-07-29T04:22:42;2.60;;;2.10;;
43986;SDS011;29650;47.378;8.300;2022-07-29T04:25:09;6.30;;;1.67;;
43986;SDS011;29650;47.378;8.300;2022-07-29T04:27:36;2.42;;;1.88;;
43986;SDS011;29650;47.378;8.300;2022-07-29T04:30:24;3.30;;;1.73;;
43986;SDS011;29650;47.378;8.300;2022-07-29T04:32:51;2.95;;;1.80;;
43986;SDS011;29650;47.378;8.300;2022-07-29T04:35:18;2.63;;;1.85;;
43986;SDS011;29650;47.378;8.300;2022-07-29T04:37:45;3.63;;;1.67;;
43986;SDS011;29650;47.378;8.300;2022-07-29T04:40:12;2.67;;;2.00;;
43986;SDS011;29650;47.378;8.300;2022-07-29T04:42:39;4.18;;;1.63;;
43986;SDS011;29650;47.378;8.300;2022-07-29T04:45:06;3.00;;;1.95;;
43986;SDS011;29650;47.378;8.300;2022-07-29T04:47:35;2.20;;;1.77;;
43986;SDS011;29650;47.378;8.300;2022-07-29T04:50:02;3.15;;;1.73;;
43986;SDS011;29650;47.378;8.300;2022-07-29T04:52:30;3.70;;;2.53;;
43986;SDS011;29650;47.378;8.300;2022-07-29T04:54:57;3.63;;;2.00;;
43986;SDS011;29650;47.378;8.300;2022-07-29T04:57:24;2.97;;;2.05;;
43986;SDS011;29650;47.378;8.300;2022-07-29T04:59:51;3.85;;;2.15;;
43986;SDS011;29650;47.378;8.300;2022-07-29T05:02:19;2.67;;;2.28;;
43986;SDS011;29650;47.378;8.300;2022-07-29T05:04:48;3.15;;;1.85;;
43986;SDS011;29650;47.378;8.300;2022-07-29T05:07:15;3.07;;;2.13;;
43986;SDS011;29650;47.378;8.300;2022-07-29T05:09:42;2.33;;;1.60;;
43986;SDS011;29650;47.378;8.300;2022-07-29T05:12:09;5.35;;;1.77;;
43986;SDS011;29650;47.378;8.300;2022-07-29T05:14:36;2.80;;;2.08;;
43986;SDS011;29650;47.378;8.300;2022-07-29T05:17:03;1.75;;;1.65;;
43986;SDS011;29650;47.378;8.300;2022-07-29T05:19:30;5.50;;;2.38;;
43986;SDS011;29650;47.378;8.300;2022-07-29T05:21:59;2.90;;;1.98;;
43986;SDS011;29650;47.378;8.300;2022-07-29T05:24:26;2.65;;;2.28;;
43986;SDS011;29650;47.378;8.300;2022-07-29T05:26:53;4.10;;;1.90;;
43986;SDS011;29650;47.378;8.300;2022-07-29T05:29:19;2.58;;;1.95;;
43986;SDS011;29650;47.378;8.300;2022-07-29T05:31:46;2.97;;;1.85;;
43986;SDS011;29650;47.378;8.300;2022-07-29T05:34:14;3.53;;;1.73;;
43986;SDS011;29650;47.378;8.300;2022-07-29T05:36:40;5.50;;;2.42;;
43986;SDS011;29650;47.378;8.300;2022-07-29T05:39:09;2.75;;;1.88;;
43986;SDS011;29650;47.378;8.300;2022-07-29T05:41:36;4.47;;;2.00;;
43986;SDS011;29650;47.378;8.300;2022-07-29T05:44:03;2.70;;;2.05;;
43986;SDS011;29650;47.378;8.300;2022-07-29T05:46:30;2.78;;;2.00;;
43986;SDS011;29650;47.378;8.300;2022-07-29T05:48:57;2.30;;;1.90;;
43986;SDS011;29650;47.378;8.300;2022-07-29T05:51:24;4.47;;;2.15;;
43986;SDS011;29650;47.378;8.300;2022-07-29T05:53:51;3.05;;;1.83;;
43986;SDS011;29650;47.378;8.300;2022-07-29T05:56:19;4.50;;;2.05;;
43986;SDS011;29650;47.378;8.300;2022-07-29T05:58:46;2.65;;;1.92;;
43986;SDS011;29650;47.378;8.300;2022-07-29T06:01:13;3.05;;;1.88;;
43986;SDS011;29650;47.378;8.300;2022-07-29T06:03:40;2.35;;;1.75;;
43986;SDS011;29650;47.378;8.300;2022-07-29T06:06:08;4.68;;;1.73;;
43986;SDS011;29650;47.378;8.300;2022-07-29T06:08:35;3.05;;;1.20;;
43986;SDS011;29650;47.378;8.300;2022-07-29T06:11:02;2.67;;;1.63;;
43986;SDS011;29650;47.378;8.300;2022-07-29T06:13:31;4.75;;;2.35;;
43986;SDS011;29650;47.378;8.300;2022-07-29T06:15:58;3.90;;;1.85;;
43986;SDS011;29650;47.378;8.300;2022-07-29T06:18:25;3.38;;;1.70;;
43986;SDS011;29650;47.378;8.300;2022-07-29T06:20:52;5.90;;;1.67;;
43986;SDS011;29650;47.378;8.300;2022-07-29T06:23:20;14.65;;;2.40;;
43986;SDS011;29650;47.378;8.300;2022-07-29T06:25:47;2.33;;;1.88;;
43986;SDS011;29650;47.378;8.300;2022-07-29T06:28:14;2.40;;;2.08;;
43986;SDS011;29650;47.378;8.300;2022-07-29T06:30:42;2.55;;;1.58;;
43986;SDS011;29650;47.378;8.300;2022-07-29T06:33:09;3.80;;;2.35;;
43986;SDS011;29650;47.378;8.300;2022-07-29T06:35:41;3.63;;;1.98;;
43986;SDS011;29650;47.378;8.300;2022-07-29T06:38:09;2.60;;;1.58;;
43986;SDS011;29650;47.378;8.300;2022-07-29T06:40:40;2.58;;;1.77;;
43986;SDS011;29650;47.378;8.300;2022-07-29T06:43:25;2.67;;;1.80;;
43986;SDS011;29650;47.378;8.300;2022-07-29T06:45:53;2.70;;;1.83;;
43986;SDS011;29650;47.378;8.300;2022-07-29T06:48:20;3.28;;;2.33;;
43986;SDS011;29650;47.378;8.300;2022-07-29T06:50:47;2.35;;;1.63;;
43986;SDS011;29650;47.378;8.300;2022-07-29T06:53:14;2.88;;;1.75;;
43986;SDS011;29650;47.378;8.300;2022-07-29T06:55:41;3.00;;;1.88;;
43986;SDS011;29650;47.378;8.300;2022-07-29T06:58:08;2.47;;;1.60;;
43986;SDS011;29650;47.378;8.300;2022-07-29T07:00:35;5.75;;;2.50;;
43986;SDS011;29650;47.378;8.300;2022-07-29T07:03:04;2.65;;;1.70;;
43986;SDS011;29650;47.378;8.300;2022-07-29T07:05:31;3.35;;;2.30;;
43986;SDS011;29650;47.378;8.300;2022-07-29T07:07:58;6.70;;;2.25;;
43986;SDS011;29650;47.378;8.300;2022-07-29T07:10:24;2.47;;;1.92;;
43986;SDS011;29650;47.378;8.300;2022-07-29T07:12:51;3.80;;;2.15;;
43986;SDS011;29650;47.378;8.300;2022-07-29T07:15:18;4.45;;;1.98;;
43986;SDS011;29650;47.378;8.300;2022-07-29T07:17:47;5.78;;;2.47;;
43986;SDS011;29650;47.378;8.300;2022-07-29T07:20:15;2.97;;;2.08;;
43986;SDS011;29650;47.378;8.300;2022-07-29T07:22:43;10.50;;;1.92;;
43986;SDS011;29650;47.378;8.300;2022-07-29T07:25:10;2.90;;;1.85;;
43986;SDS011;29650;47.378;8.300;2022-07-29T07:27:37;2.83;;;1.95;;
43986;SDS011;29650;47.378;8.300;2022-07-29T07:30:05;3.72;;;1.88;;
43986;SDS011;29650;47.378;8.300;2022-07-29T07:32:33;3.40;;;1.90;;
43986;SDS011;29650;47.378;8.300;2022-07-29T07:35:01;3.95;;;2.08;;
43986;SDS011;29650;47.378;8.300;2022-07-29T07:37:30;1.70;;;1.52;;
43986;SDS011;29650;47.378;8.300;2022-07-29T07:39:57;2.83;;;2.15;;
43986;SDS011;29650;47.378;8.300;2022-07-29T07:42:23;3.75;;;2.47;;
43986;SDS011;29650;47.378;8.300;2022-07-29T07:44:50;3.35;;;1.65;;
43986;SDS011;29650;47.378;8.300;2022-07-29T07:47:18;2.33;;;1.70;;
43986;SDS011;29650;47.378;8.300;2022-07-29T07:49:45;2.47;;;1.90;;
43986;SDS011;29650;47.378;8.300;2022-07-29T07:52:12;3.70;;;1.95;;
43986;SDS011;29650;47.378;8.300;2022-07-29T07:54:41;3.35;;;1.75;;
43986;SDS011;29650;47.378;8.300;2022-07-29T07:57:09;4.07;;;2.63;;
43986;SDS011;29650;47.378;8.300;2022-07-29T07:59:37;2.92;;;2.17;;
43986;SDS011;29650;47.378;8.300;2022-07-29T08:02:04;4.07;;;2.00;;
43986;SDS011;29650;47.378;8.300;2022-07-29T08:04:31;5.53;;;1.98;;
43986;SDS011;29650;47.378;8.300;2022-07-29T08:06:58;2.20;;;1.67;;
43986;SDS011;29650;47.378;8.300;2022-07-29T08:09:26;3.13;;;1.95;;
43986;SDS011;29650;47.378;8.300;2022-07-29T08:11:55;3.05;;;1.60;;
43986;SDS011;29650;47.378;8.300;2022-07-29T08:16:49;2.15;;;1.60;;
43986;SDS011;29650;47.378;8.300;2022-07-29T08:19:16;2.08;;;1.40;;
43986;SDS011;29650;47.378;8.300;2022-07-29T08:21:43;2.47;;;1.67;;
43986;SDS011;29650;47.378;8.300;2022-07-29T08:24:10;3.38;;;1.83;;
43986;SDS011;29650;47.378;8.300;2022-07-29T08:26:56;3.38;;;1.90;;
43986;SDS011;29650;47.378;8.300;2022-07-29T08:29:23;2.72;;;1.73;;
43986;SDS011;29650;47.378;8.300;2022-07-29T08:31:50;2.63;;;1.73;;
43986;SDS011;29650;47.378;8.300;2022-07-29T08:34:17;3.15;;;1.60;;
43986;SDS011;29650;47.378;8.300;2022-07-29T08:36:43;3.58;;;1.88;;
43986;SDS011;29650;47.378;8.300;2022-07-29T08:39:10;2.30;;;1.80;;
43986;SDS011;29650;47.378;8.300;2022-07-29T08:41:37;2.97;;;1.90;;
43986;SDS011;29650;47.378;8.300;2022-07-29T08:44:06;2.40;;;1.85;;
43986;SDS011;29650;47.378;8.300;2022-07-29T08:46:33;2.45;;;1.73;;
43986;SDS011;29650;47.378;8.300;2022-07-29T08:49:03;4.38;;;2.05;;
43986;SDS011;29650;47.378;8.300;2022-07-29T08:51:30;2.28;;;1.70;;
43986;SDS011;29650;47.378;8.300;2022-07-29T08:54:00;3.03;;;2.08;;
43986;SDS011;29650;47.378;8.300;2022-07-29T08:56:27;1.88;;;1.60;;
43986;SDS011;29650;47.378;8.300;2022-07-29T08:58:55;4.13;;;2.10;;
43986;SDS011;29650;47.378;8.300;2022-07-29T09:01:27;2.50;;;1.70;;
43986;SDS011;29650;47.378;8.300;2022-07-29T09:03:55;2.85;;;2.22;;
43986;SDS011;29650;47.378;8.300;2022-07-29T09:06:26;2.47;;;1.55;;
43986;SDS011;29650;47.378;8.300;2022-07-29T09:08:58;5.25;;;2.33;;
43986;SDS011;29650;47.378;8.300;2022-07-29T09:11:25;2.83;;;1.85;;
43986;SDS011;29650;47.378;8.300;2022-07-29T09:13:53;5.50;;;2.00;;
43986;SDS011;29650;47.378;8.300;2022-07-29T09:16:20;3.42;;;2.00;;
43986;SDS011;29650;47.378;8.300;2022-07-29T09:18:48;3.33;;;2.53;;
43986;SDS011;29650;47.378;8.300;2022-07-29T09:21:15;4.00;;;1.92;;
43986;SDS011;29650;47.378;8.300;2022-07-29T09:24:05;2.45;;;1.77;;
43986;SDS011;29650;47.378;8.300;2022-07-29T09:26:34;3.10;;;2.03;;
43986;SDS011;29650;47.378;8.300;2022-07-29T09:29:07;4.13;;;2.33;;
43986;SDS011;29650;47.378;8.300;2022-07-29T09:31:37;3.50;;;2.30;;
43986;SDS011;29650;47.378;8.300;2022-07-29T09:34:07;2.47;;;1.90;;
43986;SDS011;29650;47.378;8.300;2022-07-29T09:36:40;4.07;;;2.72;;
43986;SDS011;29650;47.378;8.300;2022-07-29T09:39:08;3.33;;;2.25;;
43986;SDS011;29650;47.378;8.300;2022-07-29T09:41:45;3.00;;;2.20;;
43986;SDS011;29650;47.378;8.300;2022-07-29T09:44:13;4.63;;;2.47;;
43986;SDS011;29650;47.378;8.300;2022-07-29T09:46:41;3.28;;;2.08;;
43986;SDS011;29650;47.378;8.300;2022-07-29T09:49:21;3.17;;;2.35;;
43986;SDS011;29650;47.378;8.300;2022-07-29T09:51:47;4.82;;;2.60;;
43986;SDS011;29650;47.378;8.300;2022-07-29T09:54:26;4.18;;;2.50;;
43986;SDS011;29650;47.378;8.300;2022-07-29T09:56:54;6.20;;;2.75;;
43986;SDS011;29650;47.378;8.300;2022-07-29T09:59:21;4.40;;;2.08;;
43986;SDS011;29650;47.378;8.300;2022-07-29T10:01:51;4.30;;;2.20;;
43986;SDS011;29650;47.378;8.300;2022-07-29T10:04:18;2.90;;;1.88;;
43986;SDS011;29650;47.378;8.300;2022-07-29T10:06:57;2.88;;;2.13;;
43986;SDS011;29650;47.378;8.300;2022-07-29T10:09:24;2.13;;;1.92;;
43986;SDS011;29650;47.378;8.300;2022-07-29T10:12:04;2.80;;;2.17;;
43986;SDS011;29650;47.378;8.300;2022-07-29T10:14:33;2.15;;;1.92;;
43986;SDS011;29650;47.378;8.300;2022-07-29T10:17:00;1.85;;;1.60;;
43986;SDS011;29650;47.378;8.300;2022-07-29T10:19:29;3.17;;;1.88;;
43986;SDS011;29650;47.378;8.300;2022-07-29T10:21:57;2.15;;;1.55;;
43986;SDS011;29650;47.378;8.300;2022-07-29T10:24:25;3.20;;;1.83;;
43986;SDS011;29650;47.378;8.300;2022-07-29T10:26:52;3.40;;;1.88;;
43986;SDS011;29650;47.378;8.300;2022-07-29T10:29:21;1.40;;;1.13;;
43986;SDS011;29650;47.378;8.300;2022-07-29T10:31:49;2.47;;;1.58;;
43986;SDS011;29650;47.378;8.300;2022-07-29T10:34:32;1.90;;;1.20;;
43986;SDS011;29650;47.378;8.300;2022-07-29T10:37:14;2.03;;;1.23;;
43986;SDS011;29650;47.378;8.300;2022-07-29T10:39:51;2.10;;;1.50;;
43986;SDS011;29650;47.378;8.300;2022-07-29T10:42:23;1.85;;;1.67;;
43986;SDS011;29650;47.378;8.300;2022-07-29T10:44:53;1.85;;;1.70;;
43986;SDS011;29650;47.378;8.300;2022-07-29T10:47:22;2.50;;;1.20;;
43986;SDS011;29650;47.378;8.300;2022-07-29T10:49:58;1.55;;;1.40;;
43986;SDS011;29650;47.378;8.300;2022-07-29T10:55:31;2.45;;;1.45;;
43986;SDS011;29650;47.378;8.300;2022-07-29T10:58:12;1.75;;;1.35;;
43986;SDS011;29650;47.378;8.300;2022-07-29T11:00:39;1.75;;;1.40;;
43986;SDS011;29650;47.378;8.300;2022-07-29T11:03:06;4.32;;;1.67;;
43986;SDS011;29650;47.378;8.300;2022-07-29T11:05:54;1.65;;;1.23;;
43986;SDS011;29650;47.378;8.300;2022-07-29T11:08:22;2.00;;;1.80;;
43986;SDS011;29650;47.378;8.300;2022-07-29T11:10:51;3.22;;;1.33;;
43986;SDS011;29650;47.378;8.300;2022-07-29T11:16:15;1.33;;;1.10;;
43986;SDS011;29650;47.378;8.300;2022-07-29T11:21:48;1.02;;;0.93;;
43986;SDS011;29650;47.378;8.300;2022-07-29T11:24:16;1.33;;;1.23;;
43986;SDS011;29650;47.378;8.300;2022-07-29T11:26:46;1.52;;;1.38;;
43986;SDS011;29650;47.378;8.300;2022-07-29T11:29:40;2.88;;;1.60;;
43986;SDS011;29650;47.378;8.300;2022-07-29T11:32:15;2.47;;;1.42;;
43986;SDS011;29650;47.378;8.300;2022-07-29T11:34:44;1.27;;;1.13;;
43986;SDS011;29650;47.378;8.300;2022-07-29T11:37:20;1.67;;;1.58;;
43986;SDS011;29650;47.378;8.300;2022-07-29T11:42:41;3.17;;;1.58;;
43986;SDS011;29650;47.378;8.300;2022-07-29T11:45:11;2.25;;;2.05;;
43986;SDS011;29650;47.378;8.300;2022-07-29T11:47:41;1.75;;;1.30;;
43986;SDS011;29650;47.378;8.300;2022-07-29T11:50:16;1.00;;;0.95;;
43986;SDS011;29650;47.378;8.300;2022-07-29T11:52:46;1.40;;;1.23;;
43986;SDS011;29650;47.378;8.300;2022-07-29T11:55:15;1.20;;;1.10;;
43986;SDS011;29650;47.378;8.300;2022-07-29T11:57:47;1.73;;;1.33;;
43986;SDS011;29650;47.378;8.300;2022-07-29T12:00:25;2.25;;;1.60;;
43986;SDS011;29650;47.378;8.300;2022-07-29T12:02:54;3.75;;;1.58;;
43986;SDS011;29650;47.378;8.300;2022-07-29T12:05:30;3.88;;;1.48;;
43986;SDS011;29650;47.378;8.300;2022-07-29T12:08:05;1.30;;;1.15;;
43986;SDS011;29650;47.378;8.300;2022-07-29T12:10:33;1.45;;;1.33;;
43986;SDS011;29650;47.378;8.300;2022-07-29T12:13:00;1.55;;;1.23;;
43986;SDS011;29650;47.378;8.300;2022-07-29T12:15:27;1.83;;;0.88;;
43986;SDS011;29650;47.378;8.300;2022-07-29T12:17:54;1.52;;;1.40;;
43986;SDS011;29650;47.378;8.300;2022-07-29T12:20:24;1.48;;;1.13;;
43986;SDS011;29650;47.378;8.300;2022-07-29T12:22:53;3.20;;;1.20;;
43986;SDS011;29650;47.378;8.300;2022-07-29T12:25:23;1.67;;;1.58;;
43986;SDS011;29650;47.378;8.300;2022-07-29T12:27:58;3.13;;;1.40;;
43986;SDS011;29650;47.378;8.300;2022-07-29T12:30:33;2.47;;;1.33;;
43986;SDS011;29650;47.378;8.300;2022-07-29T12:33:09;1.83;;;1.13;;
43986;SDS011;29650;47.378;8.300;2022-07-29T12:35:45;2.40;;;1.40;;
43986;SDS011;29650;47.378;8.300;2022-07-29T12:40:42;5.68;;;1.10;;
43986;SDS011;29650;47.378;8.300;2022-07-29T12:43:11;3.50;;;1.50;;
43986;SDS011;29650;47.378;8.300;2022-07-29T12:48:07;3.08;;;1.38;;
43986;SDS011;29650;47.378;8.300;2022-07-29T12:50:35;1.42;;;1.30;;
43986;SDS011;29650;47.378;8.300;2022-07-29T12:53:09;2.38;;;1.13;;
43986;SDS011;29650;47.378;8.300;2022-07-29T12:55:45;2.65;;;1.35;;
43986;SDS011;29650;47.378;8.300;2022-07-29T12:58:14;1.17;;;0.90;;
43986;SDS011;29650;47.378;8.300;2022-07-29T13:00:58;3.40;;;1.13;;
43986;SDS011;29650;47.378;8.300;2022-07-29T13:03:27;0.73;;;0.73;;
43986;SDS011;29650;47.378;8.300;2022-07-29T13:05:54;1.88;;;0.60;;
43986;SDS011;29650;47.378;8.300;2022-07-29T13:08:21;0.98;;;0.90;;
43986;SDS011;29650;47.378;8.300;2022-07-29T13:10:49;0.60;;;0.60;;
43986;SDS011;29650;47.378;8.300;2022-07-29T13:13:16;0.82;;;0.82;;
43986;SDS011;29650;47.378;8.300;2022-07-29T13:15:44;0.90;;;0.70;;
43986;SDS011;29650;47.378;8.300;2022-07-29T13:20:55;1.15;;;0.90;;
43986;SDS011;29650;47.378;8.300;2022-07-29T13:23:23;3.50;;;1.50;;
43986;SDS011;29650;47.378;8.300;2022-07-29T13:25:51;1.40;;;0.80;;
43986;SDS011;29650;47.378;8.300;2022-07-29T13:28:18;1.40;;;0.90;;
43986;SDS011;29650;47.378;8.300;2022-07-29T13:30:46;0.65;;;0.60;;
43986;SDS011;29650;47.378;8.300;2022-07-29T13:33:13;3.42;;;1.10;;
43986;SDS011;29650;47.378;8.300;2022-07-29T13:35:40;0.93;;;0.80;;
43986;SDS011;29650;47.378;8.300;2022-07-29T13:38:07;1.98;;;1.00;;
43986;SDS011;29650;47.378;8.300;2022-07-29T13:40:35;3.42;;;0.75;;
43986;SDS011;29650;47.378;8.300;2022-07-29T13:43:03;1.02;;;0.65;;
43986;SDS011;29650;47.378;8.300;2022-07-29T13:45:30;1.40;;;0.85;;
43986;SDS011;29650;47.378;8.300;2022-07-29T13:47:57;1.15;;;1.02;;
43986;SDS011;29650;47.378;8.300;2022-07-29T13:50:24;2.45;;;1.08;;
43986;SDS011;29650;47.378;8.300;2022-07-29T13:52:50;3.80;;;0.80;;
43986;SDS011;29650;47.378;8.300;2022-07-29T13:55:18;1.73;;;0.95;;
43986;SDS011;29650;47.378;8.300;2022-07-29T13:57:45;1.30;;;0.80;;
43986;SDS011;29650;47.378;8.300;2022-07-29T14:00:14;0.88;;;0.60;;
43986;SDS011;29650;47.378;8.300;2022-07-29T14:02:41;0.68;;;0.68;;
43986;SDS011;29650;47.378;8.300;2022-07-29T14:05:08;2.70;;;1.00;;
43986;SDS011;29650;47.378;8.300;2022-07-29T14:07:35;0.90;;;0.80;;
43986;SDS011;29650;47.378;8.300;2022-07-29T14:10:03;15.63;;;1.38;;
43986;SDS011;29650;47.378;8.300;2022-07-29T14:12:31;1.67;;;1.15;;
43986;SDS011;29650;47.378;8.300;2022-07-29T14:14:58;0.98;;;0.60;;
43986;SDS011;29650;47.378;8.300;2022-07-29T14:17:26;2.45;;;1.00;;
43986;SDS011;29650;47.378;8.300;2022-07-29T14:19:53;2.85;;;0.82;;
43986;SDS011;29650;47.378;8.300;2022-07-29T14:22:20;2.58;;;0.93;;
43986;SDS011;29650;47.378;8.300;2022-07-29T14:24:47;2.50;;;0.93;;
43986;SDS011;29650;47.378;8.300;2022-07-29T14:27:14;2.88;;;0.90;;
43986;SDS011;29650;47.378;8.300;2022-07-29T14:29:40;1.85;;;1.10;;
43986;SDS011;29650;47.378;8.300;2022-07-29T14:32:08;1.88;;;1.20;;
43986;SDS011;29650;47.378;8.300;2022-07-29T14:34:37;2.00;;;1.70;;
43986;SDS011;29650;47.378;8.300;2022-07-29T14:37:04;0.57;;;0.57;;
43986;SDS011;29650;47.378;8.300;2022-07-29T14:39:32;1.65;;;1.15;;
43986;SDS011;29650;47.378;8.300;2022-07-29T14:42:00;2.28;;;1.05;;
43986;SDS011;29650;47.378;8.300;2022-07-29T14:44:26;1.33;;;1.23;;
43986;SDS011;29650;47.378;8.300;2022-07-29T14:46:56;4.63;;;1.67;;
43986;SDS011;29650;47.378;8.300;2022-07-29T14:49:24;1.90;;;1.17;;
43986;SDS011;29650;47.378;8.300;2022-07-29T14:51:52;6.20;;;2.17;;
43986;SDS011;29650;47.378;8.300;2022-07-29T14:54:19;1.52;;;1.23;;
43986;SDS011;29650;47.378;8.300;2022-07-29T14:56:46;3.97;;;1.30;;
43986;SDS011;29650;47.378;8.300;2022-07-29T14:59:14;4.30;;;1.70;;
43986;SDS011;29650;47.378;8.300;2022-07-29T15:01:41;2.80;;;1.75;;
43986;SDS011;29650;47.378;8.300;2022-07-29T15:04:08;1.92;;;1.55;;
43986;SDS011;29650;47.378;8.300;2022-07-29T15:06:35;5.95;;;1.60;;
43986;SDS011;29650;47.378;8.300;2022-07-29T15:09:04;2.95;;;1.33;;
43986;SDS011;29650;47.378;8.300;2022-07-29T15:11:31;1.58;;;1.00;;
43986;SDS011;29650;47.378;8.300;2022-07-29T15:13:58;4.53;;;2.00;;
43986;SDS011;29650;47.378;8.300;2022-07-29T15:16:25;2.55;;;1.63;;
43986;SDS011;29650;47.378;8.300;2022-07-29T15:18:51;1.98;;;1.55;;
43986;SDS011;29650;47.378;8.300;2022-07-29T15:21:18;2.45;;;1.50;;